Estación Meteorológica Peña el Pijo (Robertgarden) [ 02/03/23 03:01:41 CET ]

Fecha Hora Presion(HPa) Temp (°C) Humedad % Rocio (°C) Viento ( m/s) Direccion Lluvia 1Hora(mm) Lluvia 24H(mm) LLuvia Total(mm)
2010-Jun-19 01:01:17 1010.300 16.5 59 8.5         120.17
2010-Jun-19 02:01:13 1009.700 14.3 63 7.3         120.17
2010-Jun-19 03:03:18 1009.400 12.2 67 6.2         120.17
2010-Jun-19 04:01:12 1009.200 10.6 71 5.6         120.17
2010-Jun-19 05:01:11 1008.800 10.4 69 5.0         120.17
2010-Jun-19 06:01:12 1008.900 9.1 71 4.1         120.17
2010-Jun-19 07:01:13 1008.900 7.9 74 3.6         120.17
2010-Jun-19 08:01:13 1009.000 11.5 69 6.0         120.17
2010-Jun-19 09:01:17 1009.000 16.8 55 7.7         120.17
2010-Jun-19 10:01:16 1009.100 19.3 46 7.3         120.17
2010-Jun-19 11:01:14 1009.100 21.7 39 7.1         120.17
2010-Jun-19 12:01:12 1009.000 24.0 34 7.1         120.17
2010-Jun-19 13:01:16 1009.100 25.6 30 6.8         120.17
2010-Jun-19 14:01:15 1009.000 26.1 29 6.6         120.17
2010-Jun-19 15:01:14 1008.500 26.2 30 7.3         120.17
2010-Jun-19 16:01:21 1008.400 26.7 29 7.2         120.17
2010-Jun-19 17:01:18 1008.300 26.1 30 7.2         120.17
2010-Jun-19 18:01:13 1008.200 26.2 30 7.3         120.17
2010-Jun-19 19:01:13 1008.300 24.5 31 6.3 1.7 S     120.17
2010-Jun-19 20:01:16 1008.300 22.6 35 6.3         120.17
2010-Jun-19 21:01:16 1008.300 19.8 41 6.2         120.17
2010-Jun-19 22:01:15 1008.300 17.3 49 6.5         120.17
2010-Jun-19 23:01:13 1009.000 14.9 58 6.7         120.17

Temperatura Máxima:26°    Temperatura Mínima:
Presión Máxima:1010.300 Hpa    Presión Mínima:1008.200 Hpa


Volver